Time;durP1;ratioP1;P1;durP2;ratioP2;P2;SDS_P1;SDS_P2;PMS_P1;PMS_P2;Temp;Humidity;BMP_temperature;BMP_pressure;BME280_temperature;BME280_humidity;BME280_pressure;Samples;Min_cycle;Max_cycle;Signal;HPM_P1;HPM_P2
2022/03/02 00:01:09;;;;;;;3.03;2.83;;;18.10;37.60;;;;;;5041290;28;20228;-59
2022/03/02 00:03:36;;;;;;;3.20;2.97;;;18.10;37.60;;;;;;5044010;28;20228;-59
2022/03/02 00:06:01;;;;;;;3.00;2.80;;;18.10;37.60;;;;;;5043069;28;20508;-59
2022/03/02 00:08:28;;;;;;;3.33;3.13;;;18.10;37.60;;;;;;5043914;28;20932;-59
2022/03/02 00:10:54;;;;;;;3.70;3.47;;;18.10;37.60;;;;;;5041602;28;20682;-59
2022/03/02 00:13:20;;;;;;;3.10;2.90;;;18.10;38.30;;;;;;5046171;28;20455;-59
2022/03/02 00:15:45;;;;;;;3.37;3.17;;;18.10;37.60;;;;;;5044060;28;20602;-60
2022/03/02 00:18:11;;;;;;;3.27;3.07;;;18.10;37.60;;;;;;5046322;28;20218;-59
2022/03/02 00:20:37;;;;;;;4.00;3.80;;;18.10;37.60;;;;;;5047252;28;20214;-59
2022/03/02 00:23:02;;;;;;;3.60;3.30;;;18.10;37.60;;;;;;5049327;28;20253;-59
2022/03/02 00:25:28;;;;;;;3.40;3.17;;;18.10;37.60;;;;;;5043535;28;20219;-59
2022/03/02 00:27:54;;;;;;;3.30;3.10;;;18.10;37.60;;;;;;5045268;28;20222;-59
2022/03/02 00:30:22;;;;;;;3.60;3.40;;;18.10;37.60;;;;;;5044593;28;20237;-59
2022/03/02 00:32:47;;;;;;;2.93;2.73;;;18.10;37.60;;;;;;5046761;28;20234;-59
2022/03/02 00:35:13;;;;;;;3.57;3.37;;;18.10;37.60;;;;;;5044498;28;20469;-59
2022/03/02 00:37:39;;;;;;;3.07;2.87;;;18.10;37.60;;;;;;5045173;28;20335;-59
2022/03/02 00:40:05;;;;;;;3.23;3.03;;;18.10;37.60;;;;;;5042396;28;20215;-59
2022/03/02 00:42:31;;;;;;;3.10;2.90;;;18.10;37.60;;;;;;5044868;28;20211;-59
2022/03/02 00:44:57;;;;;;;3.13;2.90;;;18.10;37.60;;;;;;5040810;28;20945;-59
2022/03/02 00:47:23;;;;;;;3.10;2.90;;;18.10;37.60;;;;;;5043350;28;20561;-59
2022/03/02 00:49:48;;;;;;;3.43;3.13;;;18.10;37.60;;;;;;5044152;28;20924;-59
2022/03/02 00:52:14;;;;;;;3.33;3.10;;;18.10;37.60;;;;;;5041312;28;20647;-59
2022/03/02 00:54:40;;;;;;;3.17;2.97;;;18.10;37.60;;;;;;5046928;28;20770;-59
2022/03/02 00:57:06;;;;;;;3.80;3.50;;;18.10;37.60;;;;;;5045319;28;20215;-59
2022/03/02 00:59:31;;;;;;;3.53;3.33;;;18.10;37.60;;;;;;5041258;28;20587;-59
2022/03/02 01:01:57;;;;;;;3.43;3.23;;;18.10;37.60;;;;;;5041901;28;20231;-60
2022/03/02 01:04:23;;;;;;;3.00;2.80;;;18.10;37.60;;;;;;5043288;28;20230;-59
2022/03/02 01:06:48;;;;;;;3.50;3.20;;;18.10;37.60;;;;;;5039834;28;20652;-59
2022/03/02 01:09:14;;;;;;;3.33;3.13;;;18.10;37.60;;;;;;5041728;28;20702;-59
2022/03/02 01:11:40;;;;;;;3.70;3.43;;;18.10;37.60;;;;;;5045371;28;20253;-59
2022/03/02 01:14:05;;;;;;;3.10;2.90;;;18.10;37.60;;;;;;5045256;28;20609;-59
2022/03/02 01:16:32;;;;;;;3.10;2.90;;;18.10;37.60;;;;;;5038990;28;20256;-59
2022/03/02 01:18:58;;;;;;;3.13;2.93;;;18.10;37.60;;;;;;5041734;28;20225;-59
2022/03/02 01:21:23;;;;;;;3.03;2.83;;;18.10;37.60;;;;;;5041768;28;20415;-59
2022/03/02 01:23:49;;;;;;;3.50;3.20;;;18.00;37.50;;;;;;5037934;28;20217;-59
2022/03/02 01:26:14;;;;;;;3.60;3.40;;;18.10;37.60;;;;;;5044291;28;20226;-60
2022/03/02 01:28:41;;;;;;;3.37;3.17;;;18.10;37.60;;;;;;5035829;28;20229;-59
2022/03/02 01:31:06;;;;;;;3.10;2.90;;;18.10;37.60;;;;;;5042813;28;20230;-59
2022/03/02 01:33:32;;;;;;;3.17;2.97;;;18.10;37.60;;;;;;5040911;28;20473;-59
2022/03/02 01:35:58;;;;;;;3.53;3.33;;;18.10;37.60;;;;;;5044698;28;20226;-59
2022/03/02 01:38:24;;;;;;;3.00;2.80;;;18.10;37.60;;;;;;5040763;28;20670;-59
2022/03/02 01:40:50;;;;;;;3.10;2.90;;;18.10;37.60;;;;;;5043710;28;20272;-59
2022/03/02 01:43:15;;;;;;;3.03;2.83;;;18.10;37.60;;;;;;5042118;28;20829;-59
2022/03/02 01:45:41;;;;;;;3.00;2.80;;;18.10;37.60;;;;;;5041085;28;20210;-59
2022/03/02 01:48:07;;;;;;;3.33;2.60;;;18.00;37.50;;;;;;5042233;28;20214;-59
2022/03/02 01:50:32;;;;;;;2.80;2.60;;;18.00;37.50;;;;;;5040521;28;20219;-59
2022/03/02 01:52:58;;;;;;;3.30;3.10;;;18.00;37.50;;;;;;5041414;28;20643;-59
2022/03/02 01:55:24;;;;;;;2.90;2.70;;;18.10;37.60;;;;;;5042061;28;20225;-59
2022/03/02 01:57:50;;;;;;;3.23;2.93;;;18.10;38.30;;;;;;5043896;28;20249;-59
2022/03/02 02:00:20;;;;;;;3.20;3.00;;;18.00;37.50;;;;;;5038072;28;20451;-60
2022/03/02 02:02:46;;;;;;;2.80;2.60;;;18.00;37.50;;;;;;5041901;28;20413;-59
2022/03/02 02:05:12;;;;;;;3.37;3.17;;;18.00;37.50;;;;;;5042313;28;20411;-59
2022/03/02 02:07:38;;;;;;;3.00;2.80;;;18.10;37.60;;;;;;5036850;28;20463;-59
2022/03/02 02:10:08;;;;;;;3.03;2.83;;;18.00;37.50;;;;;;5049887;28;20210;-59
2022/03/02 02:12:35;;;;;;;3.47;3.27;;;18.00;37.50;;;;;;5057538;28;20589;-59
2022/03/02 02:15:01;;;;;;;3.07;2.87;;;18.00;37.50;;;;;;5037469;28;20445;-59
2022/03/02 02:17:27;;;;;;;4.23;3.20;;;18.00;37.50;;;;;;5040103;28;20755;-59
2022/03/02 02:19:53;;;;;;;3.40;3.20;;;18.10;37.60;;;;;;5045308;28;20927;-59
2022/03/02 02:22:18;;;;;;;3.20;3.00;;;18.00;37.50;;;;;;5041966;28;20441;-59
2022/03/02 02:24:44;;;;;;;3.10;2.90;;;18.00;37.50;;;;;;5041553;28;20221;-59
2022/03/02 02:27:11;;;;;;;3.13;2.93;;;18.00;37.50;;;;;;5044612;28;20651;-59
2022/03/02 02:29:38;;;;;;;3.07;2.87;;;18.00;37.50;;;;;;5051325;28;20227;-59
2022/03/02 02:32:05;;;;;;;2.60;2.50;;;18.00;37.50;;;;;;5046882;28;20526;-59
2022/03/02 02:34:31;;;;;;;2.67;2.50;;;18.00;37.50;;;;;;5046023;28;20926;-59
2022/03/02 02:36:58;;;;;;;3.50;3.30;;;18.00;37.50;;;;;;5042207;28;20457;-59
2022/03/02 02:39:25;;;;;;;2.83;2.63;;;18.00;37.50;;;;;;5047057;28;20231;-59
2022/03/02 02:41:50;;;;;;;3.70;3.30;;;18.00;37.50;;;;;;5046291;28;20414;-59
2022/03/02 02:44:16;;;;;;;3.30;3.10;;;18.00;37.50;;;;;;5042178;28;20471;-59
2022/03/02 02:46:45;;;;;;;2.60;2.40;;;18.00;37.50;;;;;;5049607;28;20223;-59
2022/03/02 02:49:11;;;;;;;3.20;3.00;;;18.00;37.50;;;;;;5047465;28;20356;-58
2022/03/02 02:51:37;;;;;;;2.80;2.60;;;18.00;37.50;;;;;;5043830;28;20493;-58
2022/03/02 02:54:04;;;;;;;3.17;2.97;;;18.00;37.50;;;;;;5046584;28;20461;-59
2022/03/02 02:56:29;;;;;;;3.37;3.10;;;18.00;37.50;;;;;;5047705;28;20430;-59
2022/03/02 02:58:55;;;;;;;3.30;3.00;;;18.00;37.50;;;;;;5044310;28;20570;-59
2022/03/02 03:01:33;;;;;;;2.60;2.40;;;18.00;37.50;;;;;;5040532;28;20570;-60
2022/03/02 03:03:58;;;;;;;3.20;3.00;;;18.00;37.50;;;;;;5008961;28;20218;-59
2022/03/02 03:06:24;;;;;;;3.17;2.97;;;18.00;37.50;;;;;;5049896;28;21014;-59
2022/03/02 03:08:50;;;;;;;2.50;2.40;;;18.00;37.50;;;;;;5047889;28;20254;-59
2022/03/02 03:11:17;;;;;;;2.83;2.63;;;18.00;37.50;;;;;;5046064;28;20298;-58
2022/03/02 03:13:43;;;;;;;3.90;2.73;;;18.00;37.50;;;;;;5046296;28;20258;-59
2022/03/02 03:16:08;;;;;;;3.53;3.30;;;18.00;37.50;;;;;;5041641;28;20483;-59
2022/03/02 03:18:34;;;;;;;3.40;3.20;;;18.00;37.50;;;;;;5045957;28;20227;-58
2022/03/02 03:21:00;;;;;;;3.30;3.10;;;18.00;37.50;;;;;;5045100;28;20223;-59
2022/03/02 03:23:27;;;;;;;3.03;2.83;;;18.00;37.50;;;;;;5040950;28;20680;-59
2022/03/02 03:25:52;;;;;;;2.60;2.40;;;18.00;37.50;;;;;;5048748;28;20225;-58
2022/03/02 03:28:18;;;;;;;3.50;3.20;;;18.00;37.50;;;;;;5042958;28;20427;-58
2022/03/02 03:30:43;;;;;;;2.83;2.63;;;18.00;37.50;;;;;;5047890;28;20560;-59
2022/03/02 03:33:09;;;;;;;3.10;2.80;;;18.00;37.50;;;;;;5046621;28;20252;-58
2022/03/02 03:35:35;;;;;;;3.10;2.90;;;18.00;37.50;;;;;;5057694;28;20226;-59
2022/03/02 03:38:00;;;;;;;2.50;2.40;;;18.00;37.80;;;;;;5046726;28;20245;-59
2022/03/02 03:40:26;;;;;;;3.60;3.40;;;18.00;38.20;;;;;;5047886;28;20218;-59
2022/03/02 03:42:53;;;;;;;2.80;2.60;;;18.00;37.50;;;;;;5037991;28;20226;-58
2022/03/02 03:45:19;;;;;;;3.10;2.90;;;18.00;37.50;;;;;;5045341;28;20222;-59
2022/03/02 03:47:45;;;;;;;2.53;2.43;;;18.00;37.50;;;;;;5044642;28;21069;-58
2022/03/02 03:50:12;;;;;;;3.17;2.97;;;18.00;37.50;;;;;;5047697;28;20442;-59
2022/03/02 03:52:38;;;;;;;3.07;2.87;;;18.00;37.50;;;;;;5042553;28;20429;-59
2022/03/02 03:55:06;;;;;;;2.33;2.23;;;18.00;37.50;;;;;;5045925;28;20426;-58
2022/03/02 03:57:31;;;;;;;3.10;2.90;;;18.00;37.50;;;;;;5040992;28;20415;-59
2022/03/02 03:59:57;;;;;;;2.93;2.73;;;18.00;37.50;;;;;;5043748;28;20768;-60
2022/03/02 04:02:23;;;;;;;2.77;2.60;;;18.00;37.50;;;;;;5044765;28;20226;-59
2022/03/02 04:04:48;;;;;;;2.60;2.50;;;18.00;37.90;;;;;;5048570;28;20218;-58
2022/03/02 04:07:14;;;;;;;2.83;2.70;;;18.00;37.50;;;;;;5043847;28;20217;-59
2022/03/02 04:09:39;;;;;;;2.67;2.47;;;18.00;37.50;;;;;;5046683;28;20211;-59
2022/03/02 04:12:05;;;;;;;3.00;2.80;;;18.00;37.50;;;;;;5044469;28;20246;-58
2022/03/02 04:14:31;;;;;;;3.10;2.90;;;18.00;37.50;;;;;;5040206;28;20222;-59
2022/03/02 04:16:57;;;;;;;2.90;2.70;;;18.00;37.50;;;;;;5047844;28;20414;-60
2022/03/02 04:19:22;;;;;;;2.53;2.43;;;18.00;37.50;;;;;;5045941;28;20661;-60
2022/03/02 04:21:48;;;;;;;2.73;2.53;;;18.00;37.50;;;;;;5048272;28;20881;-59
2022/03/02 04:24:14;;;;;;;3.40;3.10;;;18.00;37.50;;;;;;5041747;28;20653;-59
2022/03/02 04:26:39;;;;;;;2.67;2.57;;;18.00;37.50;;;;;;5047426;28;20218;-59
2022/03/02 04:29:05;;;;;;;2.73;2.63;;;18.00;37.50;;;;;;5040642;28;20656;-59
2022/03/02 04:31:31;;;;;;;2.67;2.53;;;18.00;37.50;;;;;;5040342;28;20227;-59
2022/03/02 04:33:56;;;;;;;2.50;2.40;;;18.00;37.50;;;;;;5042977;28;20223;-59
2022/03/02 04:36:22;;;;;;;2.73;2.60;;;18.00;37.50;;;;;;5034742;28;20216;-59
2022/03/02 04:38:47;;;;;;;3.07;2.87;;;18.00;37.50;;;;;;5045118;28;20245;-59
2022/03/02 04:41:13;;;;;;;2.43;2.33;;;18.00;37.50;;;;;;5047444;28;20544;-58
2022/03/02 04:43:38;;;;;;;2.57;2.47;;;18.00;37.50;;;;;;5045356;28;20565;-59
2022/03/02 04:46:05;;;;;;;3.23;3.03;;;18.00;37.50;;;;;;5043008;28;21069;-59
2022/03/02 04:48:31;;;;;;;2.33;2.23;;;18.00;37.50;;;;;;5044180;28;20226;-59
2022/03/02 04:50:57;;;;;;;2.83;2.63;;;18.00;37.50;;;;;;5039452;28;20444;-61
2022/03/02 04:53:23;;;;;;;3.13;2.93;;;18.00;37.50;;;;;;5048141;28;20237;-58
2022/03/02 04:55:50;;;;;;;2.53;2.40;;;18.00;37.50;;;;;;5045687;28;20651;-59
2022/03/02 04:58:16;;;;;;;2.93;2.73;;;18.00;37.50;;;;;;5041354;28;20439;-58
2022/03/02 05:00:42;;;;;;;2.80;2.60;;;18.00;37.50;;;;;;5045433;28;20460;-58
2022/03/02 05:03:07;;;;;;;2.83;2.50;;;18.00;37.50;;;;;;5046478;28;20261;-59
2022/03/02 05:05:35;;;;;;;3.00;2.80;;;18.00;37.50;;;;;;5041908;28;20276;-59
2022/03/02 05:08:01;;;;;;;2.70;2.50;;;18.00;37.50;;;;;;5042598;28;20239;-59
2022/03/02 05:10:29;;;;;;;2.70;2.50;;;18.00;37.50;;;;;;5043970;28;20422;-60
2022/03/02 05:12:55;;;;;;;2.53;2.43;;;18.00;37.50;;;;;;5043623;28;20883;-59
2022/03/02 05:15:22;;;;;;;2.40;2.30;;;18.00;37.50;;;;;;5040860;28;20415;-59
2022/03/02 05:17:49;;;;;;;2.80;2.60;;;18.00;37.50;;;;;;5041575;28;20426;-59
2022/03/02 05:20:16;;;;;;;2.90;2.70;;;18.00;37.50;;;;;;5047670;28;20435;-59
2022/03/02 05:22:42;;;;;;;2.57;2.37;;;18.00;37.50;;;;;;5043581;28;21143;-59
2022/03/02 05:25:09;;;;;;;2.40;2.30;;;18.00;37.50;;;;;;5042153;28;20464;-59
2022/03/02 05:27:35;;;;;;;2.50;2.30;;;18.00;38.20;;;;;;5040400;28;20451;-59
2022/03/02 05:30:01;;;;;;;2.83;2.63;;;18.00;37.50;;;;;;5038950;28;20438;-59
2022/03/02 05:32:27;;;;;;;2.40;2.30;;;18.00;37.50;;;;;;5040431;28;20444;-59
2022/03/02 05:34:53;;;;;;;2.93;2.73;;;18.00;37.50;;;;;;5041371;28;20290;-59
2022/03/02 05:37:19;;;;;;;2.50;2.30;;;18.00;37.50;;;;;;5042886;28;20511;-59
2022/03/02 05:39:44;;;;;;;2.53;2.33;;;18.00;37.50;;;;;;5047335;28;20206;-60
2022/03/02 05:42:10;;;;;;;2.30;2.20;;;18.00;38.20;;;;;;5045216;28;20227;-59
2022/03/02 05:44:35;;;;;;;2.43;2.33;;;18.10;37.60;;;;;;5043440;28;20257;-62
2022/03/02 05:47:01;;;;;;;2.90;2.80;;;18.00;37.50;;;;;;5040815;28;20280;-62
2022/03/02 05:49:27;;;;;;;2.60;2.40;;;18.10;37.60;;;;;;5040424;28;20233;-62
2022/03/02 05:51:53;;;;;;;3.00;2.80;;;18.10;37.60;;;;;;5042048;28;20526;-61
2022/03/02 05:54:18;;;;;;;3.60;2.90;;;18.10;38.30;;;;;;5048147;28;20286;-60
2022/03/02 05:56:44;;;;;;;2.80;2.60;;;18.10;37.50;;;;;;5047550;28;20970;-60
2022/03/02 05:59:12;;;;;;;3.40;2.40;;;18.10;37.50;;;;;;5045884;28;20246;-60
2022/03/02 06:01:38;;;;;;;3.00;2.50;;;18.10;37.20;;;;;;5047254;28;20415;-59
2022/03/02 06:04:08;;;;;;;2.53;2.37;;;18.10;37.30;;;;;;5047527;28;20772;-60
2022/03/02 06:06:35;;;;;;;2.97;2.77;;;18.10;37.10;;;;;;5053475;28;20414;-58
2022/03/02 06:09:06;;;;;;;2.40;2.20;;;18.10;37.20;;;;;;5046557;28;20941;-59
2022/03/02 06:11:33;;;;;;;3.07;2.87;;;18.10;37.30;;;;;;5046563;28;20508;-59
2022/03/02 06:13:59;;;;;;;2.40;2.30;;;18.10;37.30;;;;;;5053526;28;20466;-59
2022/03/02 06:16:25;;;;;;;2.43;2.27;;;18.10;37.30;;;;;;5053926;28;20452;-58
2022/03/02 06:18:51;;;;;;;2.77;2.57;;;18.10;38.00;;;;;;5051620;28;20487;-58
2022/03/02 06:21:25;;;;;;;2.80;2.60;;;18.10;37.20;;;;;;5051781;28;20234;-58
2022/03/02 06:23:51;;;;;;;2.83;2.63;;;18.10;37.20;;;;;;5049181;28;20447;-59
2022/03/02 06:26:18;;;;;;;2.90;2.70;;;18.10;37.30;;;;;;5049959;28;20504;-59
2022/03/02 06:28:44;;;;;;;2.73;2.53;;;18.10;37.30;;;;;;5048286;28;20352;-59
2022/03/02 06:31:10;;;;;;;2.67;2.47;;;18.10;37.30;;;;;;5049006;28;20476;-61
2022/03/02 06:33:35;;;;;;;2.53;2.33;;;18.10;37.20;;;;;;5040084;28;20446;-60
2022/03/02 06:36:01;;;;;;;2.67;2.50;;;18.10;37.20;;;;;;5049935;28;20290;-59
2022/03/02 06:38:27;;;;;;;4.17;2.50;;;18.10;37.10;;;;;;5049821;28;20241;-59
2022/03/02 06:41:24;;;;;;;3.20;3.00;;;18.20;37.20;;;;;;5053500;28;20246;-59
2022/03/02 06:44:14;;;;;;;4.40;2.40;;;18.20;37.20;;;;;;5043185;28;20268;-59
2022/03/02 06:47:09;;;;;;;7.00;2.93;;;18.20;37.20;;;;;;5048673;28;20501;-58
2022/03/02 06:49:56;;;;;;;2.60;2.40;;;18.20;37.20;;;;;;5042126;28;20439;-59
2022/03/02 06:52:22;;;;;;;4.53;2.67;;;18.20;37.10;;;;;;5049918;28;20426;-58
2022/03/02 06:54:50;;;;;;;2.90;2.70;;;18.20;37.00;;;;;;5046913;28;20409;-58
2022/03/02 06:57:22;;;;;;;2.73;2.53;;;18.20;37.00;;;;;;5050387;28;20938;-59
2022/03/02 06:59:53;;;;;;;3.10;2.90;;;18.20;37.00;;;;;;5049128;28;20429;-58
2022/03/02 07:02:37;;;;;;;3.13;2.93;;;18.20;37.00;;;;;;5047983;28;20430;-58
2022/03/02 07:05:05;;;;;;;3.00;2.80;;;18.20;37.00;;;;;;5044319;28;20450;-58
2022/03/02 07:07:31;;;;;;;3.97;2.93;;;18.20;37.00;;;;;;5048804;28;20534;-59
2022/03/02 07:09:58;;;;;;;3.40;3.17;;;18.20;37.00;;;;;;5049803;28;20542;-58
2022/03/02 07:12:23;;;;;;;3.10;2.80;;;18.20;36.90;;;;;;5041973;28;20672;-59
2022/03/02 07:14:51;;;;;;;2.37;2.27;;;18.20;36.90;;;;;;5048977;28;20446;-59
2022/03/02 07:17:16;;;;;;;2.90;2.40;;;18.20;37.60;;;;;;5046328;28;20570;-58
2022/03/02 07:19:42;;;;;;;2.90;2.70;;;18.20;36.80;;;;;;5046919;28;20448;-58
2022/03/02 07:22:11;;;;;;;2.70;2.50;;;18.20;36.90;;;;;;5042636;28;20223;-58
2022/03/02 07:24:44;;;;;;;3.40;3.20;;;18.20;37.00;;;;;;5045889;28;20215;-57
2022/03/02 07:27:15;;;;;;;6.20;2.60;;;18.20;36.90;;;;;;5040738;28;20426;-58
2022/03/02 07:29:41;;;;;;;3.43;2.97;;;18.20;36.80;;;;;;5046304;28;20514;-57
2022/03/02 07:32:08;;;;;;;3.70;3.40;;;18.20;36.80;;;;;;5044810;28;20439;-58
2022/03/02 07:34:40;;;;;;;2.70;2.53;;;18.20;37.20;;;;;;5046256;28;21188;-57
2022/03/02 07:37:09;;;;;;;3.10;2.90;;;18.20;36.80;;;;;;5048052;28;20448;-58
2022/03/02 07:39:35;;;;;;;3.40;3.07;;;18.20;37.60;;;;;;5047891;28;20535;-58
2022/03/02 07:42:02;;;;;;;2.90;2.70;;;18.20;36.80;;;;;;5043098;28;20457;-58
2022/03/02 07:44:28;;;;;;;2.40;2.30;;;18.20;36.70;;;;;;5041612;28;21025;-58
2022/03/02 07:46:54;;;;;;;3.07;2.87;;;18.20;36.80;;;;;;5046658;28;20451;-58
2022/03/02 07:49:20;;;;;;;3.53;2.60;;;18.20;37.60;;;;;;5037475;28;20302;-57
2022/03/02 07:51:46;;;;;;;2.77;2.57;;;18.20;36.80;;;;;;5044346;28;20214;-57
2022/03/02 07:54:14;;;;;;;2.77;2.57;;;18.20;36.80;;;;;;5041870;28;21033;-58
2022/03/02 07:56:40;;;;;;;3.20;3.00;;;18.20;36.80;;;;;;5041547;28;20764;-58
2022/03/02 07:59:07;;;;;;;2.57;2.37;;;18.20;36.80;;;;;;5042993;28;20429;-57
2022/03/02 08:01:36;;;;;;;2.67;2.57;;;18.20;36.80;;;;;;5043343;28;20341;-57
2022/03/02 08:04:06;;;;;;;2.87;2.30;;;18.20;36.80;;;;;;5041214;28;20452;-58
2022/03/02 08:06:37;;;;;;;2.30;2.20;;;18.20;36.80;;;;;;5041366;28;20432;-58
2022/03/02 08:09:07;;;;;;;3.17;2.97;;;18.20;36.80;;;;;;5044269;28;20950;-59
2022/03/02 08:11:34;;;;;;;3.07;2.87;;;18.20;36.90;;;;;;5043445;28;20419;-58
2022/03/02 08:14:01;;;;;;;2.63;2.43;;;18.20;36.90;;;;;;5040976;28;20435;-58
2022/03/02 08:16:28;;;;;;;3.10;2.90;;;18.20;37.00;;;;;;5046446;28;20590;-59
2022/03/02 08:18:53;;;;;;;2.80;2.60;;;18.20;36.90;;;;;;5041249;28;20512;-57
2022/03/02 08:21:20;;;;;;;2.77;2.37;;;18.20;36.90;;;;;;5039570;28;20493;-57
2022/03/02 08:23:49;;;;;;;2.47;2.27;;;18.20;36.80;;;;;;5045201;28;20226;-57
2022/03/02 08:26:20;;;;;;;2.73;2.53;;;18.20;36.90;;;;;;5044441;28;20495;-57
2022/03/02 08:28:46;;;;;;;2.30;2.20;;;18.20;37.00;;;;;;5042004;28;20429;-57
2022/03/02 08:31:14;;;;;;;3.07;2.83;;;18.20;36.90;;;;;;5046388;28;20461;-57
2022/03/02 08:33:41;;;;;;;2.70;2.50;;;18.20;37.00;;;;;;5043896;28;20456;-57
2022/03/02 08:36:09;;;;;;;3.20;3.00;;;18.20;36.90;;;;;;5046530;28;20509;-57
2022/03/02 08:38:40;;;;;;;3.00;2.70;;;18.20;36.90;;;;;;5046352;28;20509;-57
2022/03/02 08:41:07;;;;;;;2.90;2.70;;;18.20;37.00;;;;;;5038527;28;20542;-56
2022/03/02 08:43:35;;;;;;;3.53;3.23;;;18.20;37.00;;;;;;5039051;28;20439;-57
2022/03/02 08:46:01;;;;;;;2.60;2.23;;;18.20;37.00;;;;;;5043124;28;20767;-58
2022/03/02 08:48:27;;;;;;;2.80;2.60;;;18.20;37.00;;;;;;5042407;28;20444;-60
2022/03/02 08:50:57;;;;;;;2.40;2.30;;;18.20;36.90;;;;;;5046561;28;20466;-57
2022/03/02 08:53:24;;;;;;;2.50;2.37;;;18.20;36.90;;;;;;5045908;28;20258;-57
2022/03/02 08:55:51;;;;;;;2.53;2.33;;;18.20;37.00;;;;;;5042234;28;20442;-57
2022/03/02 08:58:17;;;;;;;2.73;2.47;;;18.20;36.80;;;;;;5039377;28;20460;-58
2022/03/02 09:00:43;;;;;;;4.70;3.03;;;18.20;36.90;;;;;;5043902;28;20429;-58
2022/03/02 09:03:14;;;;;;;2.70;2.50;;;18.20;37.00;;;;;;5040149;28;20229;-58
2022/03/02 09:05:39;;;;;;;2.40;2.20;;;18.20;36.80;;;;;;5040732;28;20293;-57
2022/03/02 09:08:07;;;;;;;2.80;2.60;;;18.20;36.90;;;;;;5044983;28;20639;-58
2022/03/02 09:10:32;;;;;;;2.50;2.30;;;18.20;36.90;;;;;;5040168;28;20216;-58
2022/03/02 09:12:59;;;;;;;2.63;2.30;;;18.20;36.90;;;;;;5043409;28;20463;-58
2022/03/02 09:15:28;;;;;;;2.70;2.53;;;18.20;37.70;;;;;;5043710;28;20210;-57
2022/03/02 09:17:55;;;;;;;2.80;2.30;;;18.20;36.90;;;;;;5041496;28;20451;-57
2022/03/02 09:20:25;;;;;;;4.57;2.07;;;18.20;36.90;;;;;;5040790;28;20459;-58
2022/03/02 09:22:51;;;;;;;2.43;2.23;;;18.20;37.00;;;;;;5045252;28;20443;-57
2022/03/02 09:25:18;;;;;;;2.73;2.43;;;18.20;36.90;;;;;;5037492;28;20498;-57
2022/03/02 09:27:46;;;;;;;2.97;2.77;;;18.20;36.90;;;;;;5043084;28;20951;-57
2022/03/02 09:30:12;;;;;;;2.90;2.60;;;18.20;37.00;;;;;;5041400;28;20463;-57
2022/03/02 09:32:42;;;;;;;3.10;2.77;;;18.20;37.00;;;;;;5044442;28;20549;-57
2022/03/02 09:35:14;;;;;;;2.93;2.50;;;18.20;37.00;;;;;;5038558;28;20419;-57
2022/03/02 09:37:43;;;;;;;5.03;2.30;;;18.20;37.00;;;;;;5042728;28;20479;-57
2022/03/02 09:40:25;;;;;;;3.60;2.67;;;18.20;37.00;;;;;;5041958;28;20468;-57
2022/03/02 09:43:03;;;;;;;2.57;2.37;;;18.20;37.00;;;;;;5044155;28;20956;-57
2022/03/02 09:45:30;;;;;;;2.47;2.27;;;18.20;37.00;;;;;;5045510;28;20491;-58
2022/03/02 09:47:59;;;;;;;3.70;2.30;;;18.20;37.10;;;;;;5046480;28;20865;-58
2022/03/02 09:50:31;;;;;;;2.60;2.40;;;18.20;37.10;;;;;;5040238;28;20475;-58
2022/03/02 09:53:01;;;;;;;2.77;2.57;;;18.20;37.10;;;;;;5041902;28;20438;-59
2022/03/02 09:55:27;;;;;;;2.93;2.73;;;18.20;37.10;;;;;;5040380;28;20480;-58
2022/03/02 09:57:55;;;;;;;2.37;2.10;;;18.20;37.10;;;;;;5039574;28;20533;-57
2022/03/02 10:00:23;;;;;;;2.97;2.70;;;18.20;37.10;;;;;;5043467;28;21054;-58
2022/03/02 10:02:52;;;;;;;2.83;2.63;;;18.20;37.10;;;;;;5040462;28;20448;-57
2022/03/02 10:05:21;;;;;;;2.33;2.13;;;18.20;37.10;;;;;;5045861;28;20453;-58
2022/03/02 10:08:00;;;;;;;2.77;2.57;;;18.20;37.10;;;;;;5044643;28;20538;-58
2022/03/02 10:10:28;;;;;;;2.90;2.70;;;18.20;37.20;;;;;;5040119;28;20902;-58
2022/03/02 10:12:57;;;;;;;2.37;2.23;;;18.20;37.20;;;;;;5039889;28;20442;-57
2022/03/02 10:15:23;;;;;;;2.30;2.20;;;18.20;37.20;;;;;;5041998;28;20422;-57
2022/03/02 10:17:51;;;;;;;2.30;2.10;;;18.20;37.30;;;;;;5042427;28;20466;-57
2022/03/02 10:20:28;;;;;;;2.57;2.37;;;18.20;37.30;;;;;;5039663;28;20268;-57
2022/03/02 10:23:14;;;;;;;2.13;2.03;;;18.20;37.40;;;;;;5044784;28;20546;-57
2022/03/02 10:26:18;;;;;;;2.20;2.10;;;18.20;37.30;;;;;;5042573;28;20920;-57
2022/03/02 10:29:00;;;;;;;2.57;2.37;;;18.20;37.30;;;;;;5043029;28;20433;-57
2022/03/02 10:31:43;;;;;;;2.60;2.40;;;18.20;37.40;;;;;;5042320;28;20758;-57
2022/03/02 10:34:29;;;;;;;2.83;2.60;;;18.20;37.60;;;;;;5038670;28;20435;-57
2022/03/02 10:37:15;;;;;;;2.83;2.60;;;18.20;37.60;;;;;;5043928;28;20447;-57
2022/03/02 10:40:29;;;;;;;2.20;2.10;;;18.10;37.50;;;;;;5038727;28;20983;-58
2022/03/02 10:43:04;;;;;;;2.70;2.50;;;18.20;37.60;;;;;;5023714;28;20419;-57
2022/03/02 10:45:36;;;;;;;2.40;2.27;;;18.10;37.50;;;;;;5044632;28;20509;-57
2022/03/02 10:48:22;;;;;;;2.50;2.30;;;18.10;37.60;;;;;;5044522;28;20443;-58
2022/03/02 10:50:51;;;;;;;2.43;2.33;;;18.10;37.60;;;;;;5045318;28;20828;-57
2022/03/02 10:53:19;;;;;;;2.30;2.20;;;18.10;37.60;;;;;;5045166;28;20449;-57
2022/03/02 10:55:48;;;;;;;2.43;2.23;;;18.10;37.60;;;;;;5048264;28;20552;-57
2022/03/02 10:58:19;;;;;;;2.53;2.33;;;18.10;37.60;;;;;;5043087;28;20429;-57
2022/03/02 11:00:47;;;;;;;2.73;2.53;;;18.10;37.60;;;;;;5040874;28;20451;-57
2022/03/02 11:03:14;;;;;;;2.03;1.93;;;18.10;37.60;;;;;;5043963;28;20473;-58
2022/03/02 11:05:40;;;;;;;2.57;2.37;;;18.10;37.60;;;;;;5050425;28;20484;-58
2022/03/02 11:08:06;;;;;;;2.20;2.10;;;18.10;37.60;;;;;;5044550;28;20421;-57
2022/03/02 11:10:33;;;;;;;2.50;2.30;;;18.10;37.60;;;;;;5041174;28;20419;-58
2022/03/02 11:13:11;;;;;;;2.70;2.10;;;18.10;37.60;;;;;;5040921;28;20289;-58
2022/03/02 11:15:50;;;;;;;2.53;2.33;;;18.10;37.60;;;;;;5044002;28;20510;-57
2022/03/02 11:18:19;;;;;;;2.50;2.40;;;18.10;37.60;;;;;;5042824;28;20812;-58
2022/03/02 11:21:05;;;;;;;2.00;1.90;;;18.10;37.60;;;;;;5046203;28;20961;-57
2022/03/02 11:23:44;;;;;;;2.60;2.40;;;18.10;37.60;;;;;;5045920;28;20454;-57
2022/03/02 11:26:12;;;;;;;2.37;2.20;;;18.10;37.60;;;;;;5044499;28;20428;-57
2022/03/02 11:28:44;;;;;;;2.40;2.30;;;18.10;37.60;;;;;;5044492;28;20452;-58
2022/03/02 11:31:10;;;;;;;2.80;2.60;;;18.10;37.60;;;;;;5045827;28;20468;-58
2022/03/02 11:33:36;;;;;;;2.00;1.90;;;18.10;37.60;;;;;;5040596;28;20464;-58
2022/03/02 11:36:09;;;;;;;2.10;2.00;;;18.10;37.60;;;;;;5048954;28;20249;-59
2022/03/02 11:38:35;;;;;;;2.30;2.20;;;18.10;37.60;;;;;;5041205;28;20788;-59
2022/03/02 11:41:02;;;;;;;2.57;2.37;;;18.10;37.60;;;;;;5046928;28;20497;-58
2022/03/02 11:43:29;;;;;;;2.60;2.40;;;18.10;37.60;;;;;;5048167;28;20673;-59
2022/03/02 11:46:01;;;;;;;2.00;1.90;;;18.10;37.60;;;;;;5046812;28;20449;-58
2022/03/02 11:48:29;;;;;;;2.47;2.27;;;18.10;37.60;;;;;;5039747;28;20467;-58
2022/03/02 11:51:10;;;;;;;2.60;2.40;;;18.10;37.60;;;;;;5043189;28;20410;-58
2022/03/02 11:53:39;;;;;;;2.27;2.17;;;18.10;37.60;;;;;;5041732;28;20518;-58
2022/03/02 11:56:07;;;;;;;2.40;2.27;;;18.10;37.60;;;;;;5044190;28;20809;-58
2022/03/02 11:59:01;;;;;;;2.37;2.20;;;18.10;37.60;;;;;;5044872;28;20415;-57
2022/03/02 12:01:38;;;;;;;2.80;2.60;;;18.10;37.60;;;;;;5045846;28;20776;-58
2022/03/02 12:04:06;;;;;;;2.40;2.30;;;18.10;37.60;;;;;;5038623;28;20449;-57
2022/03/02 12:19:23;;;;;;;3.60;2.20;;;18.10;37.60;;;;;;4989331;28;20444;-56
2022/03/02 12:21:54;;;;;;;2.40;2.20;;;18.10;37.60;;;;;;4996019;28;20578;-58
2022/03/02 12:24:29;;;;;;;2.60;2.40;;;18.20;37.60;;;;;;4994359;28;20455;-56
2022/03/02 12:27:02;;;;;;;2.60;2.40;;;18.20;37.60;;;;;;4999008;28;20435;-56
2022/03/02 12:29:28;;;;;;;2.60;2.23;;;18.10;37.60;;;;;;5001473;28;20412;-57
2022/03/02 12:32:17;;;;;;;3.93;2.10;;;18.20;37.60;;;;;;4999501;28;20957;-56
2022/03/02 12:34:50;;;;;;;2.90;2.30;;;18.20;37.60;;;;;;5002038;28;20437;-57
2022/03/02 12:37:16;;;;;;;2.30;2.10;;;18.20;37.60;;;;;;4998005;28;20512;-56
2022/03/02 12:39:43;;;;;;;4.40;2.57;;;18.10;38.30;;;;;;4999063;28;20446;-56
2022/03/02 12:42:10;;;;;;;3.13;2.50;;;18.10;37.60;;;;;;5001473;28;20458;-56
2022/03/02 12:44:44;;;;;;;2.20;2.10;;;18.20;37.60;;;;;;4999635;28;20426;-56
2022/03/02 12:47:15;;;;;;;3.27;2.00;;;18.20;37.60;;;;;;4998790;28;20923;-56
2022/03/02 12:49:43;;;;;;;2.10;2.00;;;18.10;37.60;;;;;;5003583;28;20860;-56
2022/03/02 12:52:10;;;;;;;2.40;2.30;;;18.10;37.60;;;;;;5000212;28;20429;-57
2022/03/02 12:54:41;;;;;;;2.77;2.63;;;18.10;37.60;;;;;;4993521;28;20457;-57
2022/03/02 12:57:12;;;;;;;2.53;2.33;;;18.20;37.60;;;;;;5000624;28;20480;-56
2022/03/02 12:59:39;;;;;;;2.53;2.33;;;18.10;37.60;;;;;;5002342;28;20956;-57
2022/03/02 13:02:07;;;;;;;2.10;2.00;;;18.20;37.60;;;;;;5002525;28;20442;-56
2022/03/02 13:04:45;;;;;;;11.17;2.60;;;18.20;37.60;;;;;;5003307;28;20484;-56
2022/03/02 13:07:23;;;;;;;2.27;2.17;;;18.20;37.60;;;;;;5001126;28;20451;-56